Time;durP1;ratioP1;P1;durP2;ratioP2;P2;SDS_P1;SDS_P2;PMS_P1;PMS_P2;Temp;Humidity;BMP_temperature;BMP_pressure;BME280_temperature;BME280_humidity;BME280_pressure;Samples;Min_cycle;Max_cycle;Signal;HPM_P1;HPM_P2
2023/05/25 00:01:47;;;;;;;7.45;3.78;;;8.40;99.90;;;;;;5070681;28;20097;-64
2023/05/25 00:04:15;;;;;;;9.43;3.88;;;8.50;99.90;;;;;;5069672;28;20090;-62
2023/05/25 00:06:44;;;;;;;5.70;3.15;;;8.40;99.90;;;;;;5070577;28;20045;-65
2023/05/25 00:09:09;;;;;;;9.25;3.38;;;8.40;99.90;;;;;;5069321;28;20071;-62
2023/05/25 00:11:35;;;;;;;7.80;3.80;;;8.40;99.90;;;;;;5070061;28;20028;-63
2023/05/25 00:14:00;;;;;;;8.40;3.50;;;8.40;99.90;;;;;;5070436;28;20044;-64
2023/05/25 00:16:26;;;;;;;7.00;3.30;;;8.40;99.90;;;;;;5068991;28;20044;-61
2023/05/25 00:18:56;;;;;;;5.75;3.50;;;8.40;99.90;;;;;;5069049;28;20033;-65
2023/05/25 00:21:23;;;;;;;6.75;3.55;;;8.40;99.90;;;;;;5070452;28;20127;-61
2023/05/25 00:23:48;;;;;;;10.80;3.88;;;8.40;99.90;;;;;;5070788;28;20542;-63
2023/05/25 00:26:14;;;;;;;8.98;4.00;;;8.30;99.90;;;;;;5070065;28;20104;-61
2023/05/25 00:28:40;;;;;;;10.15;4.07;;;8.30;99.90;;;;;;5070499;28;20376;-63
2023/05/25 00:31:05;;;;;;;10.45;4.03;;;8.30;99.90;;;;;;5068907;28;20464;-61
2023/05/25 00:33:31;;;;;;;7.35;4.30;;;8.30;99.90;;;;;;5069043;28;20124;-62
2023/05/25 00:35:57;;;;;;;7.45;3.88;;;8.30;99.90;;;;;;5068656;28;20093;-65
2023/05/25 00:38:22;;;;;;;9.27;4.00;;;8.30;99.90;;;;;;5069987;28;20093;-62
2023/05/25 00:40:54;;;;;;;6.18;3.75;;;8.20;99.90;;;;;;5069768;28;20106;-63
2023/05/25 00:43:20;;;;;;;8.57;3.50;;;8.20;99.90;;;;;;5068581;28;20044;-62
2023/05/25 00:45:46;;;;;;;8.45;3.97;;;8.20;99.90;;;;;;5068754;28;20611;-62
2023/05/25 00:48:12;;;;;;;8.93;3.58;;;8.20;99.90;;;;;;5069898;28;20044;-62
2023/05/25 00:50:40;;;;;;;5.43;3.20;;;8.10;99.90;;;;;;5068650;28;20032;-63
2023/05/25 00:53:08;;;;;;;7.25;3.67;;;8.10;99.90;;;;;;5068689;28;20044;-63
2023/05/25 00:55:39;;;;;;;8.00;3.58;;;8.10;99.90;;;;;;5069835;28;20048;-62
2023/05/25 00:58:07;;;;;;;8.73;3.75;;;8.10;99.90;;;;;;5070061;28;20076;-66
2023/05/25 01:00:34;;;;;;;4.97;3.10;;;8.10;99.90;;;;;;5070239;28;20047;-64
2023/05/25 01:03:10;;;;;;;6.93;3.42;;;8.00;99.90;;;;;;5069787;28;20037;-63
2023/05/25 01:05:41;;;;;;;6.13;3.58;;;8.00;99.90;;;;;;5067963;28;20075;-64
2023/05/25 01:08:08;;;;;;;7.43;3.90;;;8.00;99.90;;;;;;5067866;28;20040;-61
2023/05/25 01:10:38;;;;;;;9.20;3.42;;;8.00;99.90;;;;;;5069220;28;20037;-61
2023/05/25 01:13:05;;;;;;;5.53;3.55;;;8.00;99.90;;;;;;5069231;28;20390;-61
2023/05/25 01:15:32;;;;;;;8.65;3.78;;;8.00;99.90;;;;;;5067898;28;20048;-64
2023/05/25 01:17:58;;;;;;;8.75;3.90;;;7.90;99.90;;;;;;5068076;28;20041;-62
2023/05/25 01:20:28;;;;;;;7.03;3.65;;;8.00;99.90;;;;;;5051458;28;20044;-61
2023/05/25 01:22:58;;;;;;;9.52;4.07;;;8.00;99.90;;;;;;5069743;28;20063;-63
2023/05/25 01:25:31;;;;;;;8.15;4.10;;;7.90;99.90;;;;;;5068120;28;20040;-61
2023/05/25 01:28:05;;;;;;;7.20;3.97;;;7.90;99.90;;;;;;5069481;28;20115;-66
2023/05/25 01:30:32;;;;;;;8.23;4.57;;;7.80;99.90;;;;;;5069264;28;20037;-62
2023/05/25 01:32:58;;;;;;;8.98;4.43;;;7.80;99.90;;;;;;5068194;28;20074;-62
2023/05/25 01:35:26;;;;;;;6.88;4.20;;;7.80;99.90;;;;;;5068488;28;20429;-62
2023/05/25 01:37:51;;;;;;;11.82;4.75;;;7.80;99.90;;;;;;5067967;28;20052;-63
2023/05/25 01:40:17;;;;;;;7.75;4.00;;;7.80;99.90;;;;;;5067925;28;20071;-61
2023/05/25 01:42:43;;;;;;;9.68;4.10;;;7.80;99.90;;;;;;5068015;28;20076;-62
2023/05/25 01:45:11;;;;;;;7.15;3.92;;;7.80;99.90;;;;;;5069578;28;20400;-63
2023/05/25 01:48:02;;;;;;;7.78;4.85;;;7.80;99.90;;;;;;5068242;28;20044;-63
2023/05/25 01:51:01;;;;;;;6.75;3.53;;;7.80;99.90;;;;;;5051652;28;20049;-65
2023/05/25 01:53:35;;;;;;;7.10;4.15;;;7.80;99.90;;;;;;5069333;28;20457;-60
2023/05/25 01:56:10;;;;;;;8.50;4.82;;;7.80;99.90;;;;;;5067801;28;20040;-62
2023/05/25 01:58:48;;;;;;;6.32;3.20;;;7.70;99.90;;;;;;5067944;28;20044;-63
2023/05/25 02:01:15;;;;;;;4.25;3.17;;;7.70;99.90;;;;;;5069172;28;20109;-61
2023/05/25 02:03:42;;;;;;;5.63;3.10;;;7.70;99.90;;;;;;5067889;28;20079;-61
2023/05/25 02:06:08;;;;;;;7.28;3.20;;;7.60;99.90;;;;;;5069155;28;20032;-60
2023/05/25 02:08:33;;;;;;;8.32;3.10;;;7.60;99.90;;;;;;5067902;28;20042;-62
2023/05/25 02:11:00;;;;;;;4.50;3.20;;;7.60;99.90;;;;;;5068839;28;20399;-62
2023/05/25 02:13:26;;;;;;;6.40;3.13;;;7.50;99.90;;;;;;5069151;28;20059;-62
2023/05/25 02:15:52;;;;;;;5.80;3.67;;;7.50;99.90;;;;;;5068994;28;20226;-60
2023/05/25 02:18:17;;;;;;;7.13;3.78;;;7.40;99.90;;;;;;5067539;28;20037;-64
2023/05/25 02:20:44;;;;;;;9.27;3.58;;;7.40;99.90;;;;;;5069071;28;20547;-63
2023/05/25 02:23:10;;;;;;;8.85;3.40;;;7.30;99.90;;;;;;5067608;28;20072;-62
2023/05/25 02:25:35;;;;;;;8.10;4.15;;;7.30;99.90;;;;;;5051176;28;20083;-60
2023/05/25 02:28:01;;;;;;;6.28;3.75;;;7.30;99.90;;;;;;5067462;28;20048;-61
2023/05/25 02:30:27;;;;;;;6.30;3.50;;;7.30;99.90;;;;;;5067492;28;20040;-61
2023/05/25 02:32:52;;;;;;;8.10;3.35;;;7.30;99.90;;;;;;5067635;28;20116;-61
2023/05/25 02:35:18;;;;;;;7.45;3.70;;;7.30;99.90;;;;;;5068379;28;20049;-60
2023/05/25 02:37:44;;;;;;;7.50;3.65;;;7.20;99.90;;;;;;5071035;28;20048;-61
2023/05/25 02:40:10;;;;;;;5.78;3.35;;;7.20;99.90;;;;;;5072373;28;20044;-61
2023/05/25 02:42:36;;;;;;;7.15;3.20;;;7.20;99.90;;;;;;5071236;28;20040;-62
2023/05/25 02:45:02;;;;;;;5.97;3.22;;;7.20;99.90;;;;;;5070877;28;20043;-62
2023/05/25 02:47:28;;;;;;;7.40;4.13;;;7.20;99.90;;;;;;5071214;28;20583;-62
2023/05/25 02:49:53;;;;;;;6.10;3.70;;;7.20;99.90;;;;;;5070768;28;20036;-63
2023/05/25 02:52:20;;;;;;;6.35;3.13;;;7.20;99.90;;;;;;5072062;28;20040;-63
2023/05/25 02:54:45;;;;;;;5.28;3.20;;;7.20;99.90;;;;;;5071057;28;20033;-61
2023/05/25 02:57:11;;;;;;;4.15;2.80;;;7.10;99.90;;;;;;5072302;28;20097;-62
2023/05/25 02:59:37;;;;;;;7.18;3.70;;;7.10;99.90;;;;;;5071011;28;20036;-62
2023/05/25 03:02:02;;;;;;;5.28;3.65;;;7.00;99.90;;;;;;5071988;28;20035;-62
2023/05/25 03:04:30;;;;;;;6.00;3.72;;;7.00;99.90;;;;;;5071954;28;20043;-64
2023/05/25 03:06:55;;;;;;;4.50;3.28;;;7.00;99.90;;;;;;5070711;28;20386;-62
2023/05/25 03:09:21;;;;;;;7.90;4.00;;;7.00;99.90;;;;;;5070791;28;21584;-60
2023/05/25 03:11:46;;;;;;;6.43;3.55;;;7.00;99.90;;;;;;5070536;28;20048;-61
2023/05/25 03:14:12;;;;;;;5.72;3.42;;;7.00;99.90;;;;;;5070941;28;20383;-62
2023/05/25 03:16:38;;;;;;;5.68;3.70;;;7.00;99.90;;;;;;5071497;28;20102;-62
2023/05/25 03:19:04;;;;;;;5.53;3.58;;;7.00;99.90;;;;;;5070359;28;20127;-61
2023/05/25 03:21:31;;;;;;;6.43;3.80;;;7.00;99.90;;;;;;5071356;28;20066;-62
2023/05/25 03:23:56;;;;;;;5.32;3.17;;;7.00;99.90;;;;;;5070474;28;20040;-64
2023/05/25 03:26:24;;;;;;;8.40;3.92;;;7.00;99.90;;;;;;5071500;28;20438;-62
2023/05/25 03:28:50;;;;;;;7.07;3.67;;;7.00;99.90;;;;;;5070228;28;20059;-61
2023/05/25 03:31:16;;;;;;;9.65;4.18;;;7.00;99.90;;;;;;5071351;28;20044;-61
2023/05/25 03:33:42;;;;;;;6.00;3.80;;;7.00;99.90;;;;;;5070010;28;20048;-61
2023/05/25 03:36:08;;;;;;;7.40;3.78;;;7.00;99.90;;;;;;5071468;28;20040;-60
2023/05/25 03:38:37;;;;;;;7.40;3.85;;;7.00;99.90;;;;;;5071149;28;20117;-60
2023/05/25 03:41:03;;;;;;;6.35;4.50;;;7.00;99.90;;;;;;5069763;28;20045;-61
2023/05/25 03:43:29;;;;;;;5.93;3.75;;;7.00;99.90;;;;;;5071029;28;20036;-61
2023/05/25 03:45:55;;;;;;;4.85;3.15;;;7.00;99.90;;;;;;5070999;28;20037;-63
2023/05/25 03:48:20;;;;;;;6.93;3.65;;;7.00;99.90;;;;;;5070040;28;20131;-62
2023/05/25 03:50:46;;;;;;;7.93;3.45;;;7.00;99.90;;;;;;5102321;28;20044;-63
2023/05/25 03:53:12;;;;;;;6.70;3.33;;;7.00;99.90;;;;;;5071143;28;20036;-61
2023/05/25 03:55:37;;;;;;;5.10;3.15;;;7.00;99.90;;;;;;5069476;28;20040;-60
2023/05/25 03:58:03;;;;;;;6.38;3.20;;;7.10;99.90;;;;;;5069697;28;20044;-63
2023/05/25 04:00:29;;;;;;;6.55;3.72;;;7.00;99.90;;;;;;5069621;28;20029;-63
2023/05/25 04:02:55;;;;;;;8.60;4.07;;;7.10;99.90;;;;;;5070619;28;20040;-60
2023/05/25 04:05:21;;;;;;;5.15;3.97;;;7.20;99.90;;;;;;5070619;28;20116;-64
2023/05/25 04:07:47;;;;;;;7.38;4.10;;;7.20;99.90;;;;;;5070768;28;20104;-63
2023/05/25 04:10:12;;;;;;;7.95;3.90;;;7.20;99.90;;;;;;5069499;28;20047;-59
2023/05/25 04:12:38;;;;;;;6.10;2.80;;;7.30;99.90;;;;;;5070599;28;20044;-61
2023/05/25 04:15:07;;;;;;;5.90;3.30;;;7.30;99.90;;;;;;5069168;28;20123;-62
2023/05/25 04:17:34;;;;;;;7.63;3.33;;;7.30;99.90;;;;;;5069334;28;20080;-63
2023/05/25 04:20:00;;;;;;;6.75;3.40;;;7.40;99.90;;;;;;5068966;28;20459;-63
2023/05/25 04:22:26;;;;;;;6.07;3.25;;;7.40;99.90;;;;;;5070638;28;20119;-62
2023/05/25 04:24:52;;;;;;;9.18;3.70;;;7.50;99.90;;;;;;5069168;28;20513;-63
2023/05/25 04:27:19;;;;;;;9.40;4.07;;;7.50;99.90;;;;;;5068940;28;20040;-61
2023/05/25 04:29:45;;;;;;;8.77;4.68;;;7.60;99.90;;;;;;5070325;28;20041;-62
2023/05/25 04:32:16;;;;;;;9.05;4.90;;;7.60;99.90;;;;;;5069250;28;20049;-60
2023/05/25 04:34:43;;;;;;;9.35;5.10;;;7.70;99.90;;;;;;5069293;28;20047;-65
2023/05/25 04:37:09;;;;;;;10.93;6.13;;;7.80;99.90;;;;;;5070038;28;20036;-63
2023/05/25 04:39:35;;;;;;;12.25;6.53;;;7.90;99.90;;;;;;5069888;28;20055;-61
2023/05/25 04:42:04;;;;;;;10.73;5.70;;;8.00;99.90;;;;;;5070064;28;20049;-61
2023/05/25 04:44:34;;;;;;;13.30;6.43;;;8.10;99.90;;;;;;5068639;28;20033;-61
2023/05/25 04:47:01;;;;;;;11.43;6.85;;;8.20;99.90;;;;;;5069664;28;20041;-64
2023/05/25 04:49:27;;;;;;;12.15;6.82;;;8.30;99.90;;;;;;5068590;28;20403;-61
2023/05/25 04:51:53;;;;;;;12.88;7.47;;;8.40;99.90;;;;;;5068460;28;20052;-60
2023/05/25 04:54:19;;;;;;;14.60;6.63;;;8.50;99.90;;;;;;5068894;28;20047;-62
2023/05/25 04:56:44;;;;;;;11.52;6.90;;;8.60;99.90;;;;;;5068640;28;20036;-62
2023/05/25 04:59:10;;;;;;;11.80;7.13;;;8.70;99.90;;;;;;5068028;28;20093;-62
2023/05/25 05:01:43;;;;;;;13.43;6.75;;;8.80;99.90;;;;;;5068404;28;20036;-61
2023/05/25 05:04:09;;;;;;;16.23;7.85;;;8.90;99.90;;;;;;5069691;28;20138;-62
2023/05/25 05:06:38;;;;;;;11.93;6.97;;;9.00;99.90;;;;;;5069737;28;20601;-60
2023/05/25 05:09:04;;;;;;;14.60;7.45;;;9.10;99.90;;;;;;5068637;28;20056;-62
2023/05/25 05:11:29;;;;;;;12.93;6.97;;;9.30;99.90;;;;;;5068190;28;20054;-64
2023/05/25 05:13:55;;;;;;;14.25;7.68;;;9.40;99.90;;;;;;5068144;28;20395;-61
2023/05/25 05:16:21;;;;;;;14.95;7.07;;;9.50;99.90;;;;;;5068191;28;20483;-59
2023/05/25 05:18:47;;;;;;;14.70;7.60;;;9.70;99.90;;;;;;5069582;28;20043;-62
2023/05/25 05:21:13;;;;;;;13.60;7.65;;;9.80;99.90;;;;;;5068733;28;20475;-61
2023/05/25 05:23:41;;;;;;;18.75;8.20;;;9.90;99.90;;;;;;5069259;28;20040;-63
2023/05/25 05:26:09;;;;;;;13.25;7.60;;;10.00;99.90;;;;;;5068160;28;20040;-58
2023/05/25 05:28:35;;;;;;;15.93;7.95;;;10.10;99.90;;;;;;5068191;28;20083;-62
2023/05/25 05:31:01;;;;;;;15.13;7.93;;;10.20;99.90;;;;;;5068450;28;20048;-63
2023/05/25 05:33:27;;;;;;;17.73;8.57;;;10.40;99.90;;;;;;5069463;28;20041;-62
2023/05/25 05:35:53;;;;;;;19.60;8.93;;;10.60;99.90;;;;;;5068331;28;20047;-63
2023/05/25 05:38:20;;;;;;;13.98;8.05;;;10.60;99.90;;;;;;5068111;28;20061;-61
2023/05/25 05:40:45;;;;;;;15.65;8.70;;;10.80;99.90;;;;;;5051353;28;20052;-63
2023/05/25 05:43:12;;;;;;;18.50;8.20;;;10.90;99.90;;;;;;5069174;28;20111;-62
2023/05/25 05:45:37;;;;;;;16.02;8.43;;;11.00;99.90;;;;;;5069395;28;20037;-61
2023/05/25 05:48:05;;;;;;;14.93;8.45;;;11.20;99.90;;;;;;5067881;28;20628;-60
2023/05/25 05:50:31;;;;;;;15.20;8.63;;;11.30;99.90;;;;;;5068260;28;20533;-62
2023/05/25 05:52:56;;;;;;;18.75;8.80;;;11.50;99.90;;;;;;5068151;28;20044;-62
2023/05/25 05:55:22;;;;;;;14.63;8.02;;;11.60;99.90;;;;;;5067970;28;20036;-64
2023/05/25 05:57:48;;;;;;;16.42;8.25;;;11.80;99.90;;;;;;5067500;28;20132;-64
2023/05/25 06:00:14;;;;;;;22.27;9.35;;;11.90;99.90;;;;;;5069614;28;20040;-62
2023/05/25 06:02:41;;;;;;;14.90;8.10;;;12.00;99.90;;;;;;5067947;28;20037;-59
2023/05/25 06:05:07;;;;;;;17.23;9.30;;;12.20;99.90;;;;;;5069192;28;20487;-62
2023/05/25 06:07:34;;;;;;;20.70;9.23;;;12.30;99.90;;;;;;5067784;28;20036;-63
2023/05/25 06:10:00;;;;;;;16.30;8.80;;;12.40;99.90;;;;;;5069442;28;20044;-61
2023/05/25 06:12:26;;;;;;;19.23;8.63;;;12.60;99.90;;;;;;5055242;28;20165;-63
2023/05/25 06:14:52;;;;;;;14.50;7.85;;;12.70;99.90;;;;;;5072779;28;20068;-61
2023/05/25 06:17:18;;;;;;;18.15;8.43;;;12.90;99.90;;;;;;5054838;28;20102;-59
2023/05/25 06:19:44;;;;;;;13.07;7.35;;;13.10;99.90;;;;;;5072803;28;20033;-61
2023/05/25 06:22:10;;;;;;;14.63;7.47;;;13.10;99.90;;;;;;5072924;28;20486;-64
2023/05/25 06:24:35;;;;;;;18.27;7.82;;;13.20;99.90;;;;;;5071453;28;20040;-60
2023/05/25 06:27:02;;;;;;;13.45;7.07;;;13.30;99.90;;;;;;5071156;28;20094;-62
2023/05/25 06:29:28;;;;;;;15.40;7.05;;;13.40;99.90;;;;;;5071338;28;20036;-62
2023/05/25 06:31:54;;;;;;;11.25;6.30;;;13.50;99.90;;;;;;5071242;28;20384;-60
2023/05/25 06:34:19;;;;;;;13.15;5.95;;;13.50;99.90;;;;;;5071575;28;20046;-64
2023/05/25 06:36:46;;;;;;;12.85;5.53;;;13.60;99.90;;;;;;5054936;28;20053;-60
2023/05/25 06:39:12;;;;;;;13.13;5.88;;;13.70;99.90;;;;;;5070820;28;20474;-61
2023/05/25 06:41:39;;;;;;;12.35;5.45;;;13.90;99.90;;;;;;5072187;28;20044;-60
2023/05/25 06:44:05;;;;;;;11.93;5.10;;;14.10;99.90;;;;;;5072099;28;20086;-61
2023/05/25 06:46:31;;;;;;;8.85;4.70;;;14.20;99.90;;;;;;5071016;28;20036;-60
2023/05/25 06:49:01;;;;;;;7.97;3.33;;;14.20;99.90;;;;;;5054330;28;20071;-60
2023/05/25 06:51:27;;;;;;;8.70;3.50;;;14.30;99.90;;;;;;5072197;28;20433;-63
2023/05/25 06:53:54;;;;;;;10.07;3.80;;;14.20;99.90;;;;;;5070813;28;20402;-62
2023/05/25 06:56:21;;;;;;;12.75;4.22;;;14.10;99.90;;;;;;5072330;28;20111;-63
2023/05/25 06:58:48;;;;;;;8.90;3.55;;;14.20;99.90;;;;;;5054133;28;20503;-62
2023/05/25 07:01:14;;;;;;;8.63;3.70;;;14.20;99.90;;;;;;5072085;28;20033;-63
2023/05/25 07:03:40;;;;;;;9.98;4.25;;;14.30;99.90;;;;;;5071945;28;20094;-61
2023/05/25 07:06:06;;;;;;;11.05;4.07;;;14.20;99.90;;;;;;5070747;28;20048;-63
2023/05/25 07:08:32;;;;;;;12.27;4.32;;;14.20;99.90;;;;;;5070430;28;20040;-61
2023/05/25 07:10:58;;;;;;;8.20;3.58;;;14.40;99.90;;;;;;5070862;28;20028;-62
2023/05/25 07:13:23;;;;;;;10.30;3.65;;;14.50;99.90;;;;;;5071859;28;20037;-64
2023/05/25 07:15:51;;;;;;;9.50;3.97;;;14.60;99.90;;;;;;5070687;28;20086;-62
2023/05/25 07:18:17;;;;;;;12.18;3.80;;;14.70;99.90;;;;;;5070625;28;20574;-65
2023/05/25 07:20:42;;;;;;;10.23;4.03;;;14.70;99.90;;;;;;5053623;28;20068;-64
2023/05/25 07:23:12;;;;;;;11.93;4.25;;;14.80;99.90;;;;;;5070475;28;20075;-61
2023/05/25 07:25:39;;;;;;;10.15;4.05;;;14.70;99.90;;;;;;5070079;28;20048;-60
2023/05/25 07:28:05;;;;;;;8.90;3.10;;;14.60;99.90;;;;;;5070652;28;20082;-63
2023/05/25 07:30:31;;;;;;;10.43;3.38;;;14.60;99.90;;;;;;5070196;28;20080;-62
2023/05/25 07:32:59;;;;;;;12.25;3.90;;;14.50;99.90;;;;;;5071435;28;20068;-61
2023/05/25 07:35:25;;;;;;;9.38;3.67;;;14.50;99.90;;;;;;5069987;28;20048;-62
2023/05/25 07:38:03;;;;;;;9.63;4.03;;;14.40;99.90;;;;;;5070104;28;20032;-64
2023/05/25 07:40:28;;;;;;;9.68;3.67;;;14.40;99.90;;;;;;5069806;28;20059;-64
2023/05/25 07:42:54;;;;;;;14.43;4.20;;;14.30;99.90;;;;;;5070126;28;20449;-63
2023/05/25 07:45:20;;;;;;;8.93;3.78;;;14.40;99.90;;;;;;5070366;28;20093;-62
2023/05/25 07:47:46;;;;;;;10.35;3.30;;;14.50;99.90;;;;;;5069746;28;20044;-63
2023/05/25 07:50:13;;;;;;;10.18;3.25;;;14.70;99.90;;;;;;5069806;28;20040;-62
2023/05/25 07:52:39;;;;;;;10.52;3.15;;;14.80;99.90;;;;;;5069735;28;20066;-62
2023/05/25 07:55:07;;;;;;;12.90;3.90;;;15.00;99.90;;;;;;5071178;28;20071;-63
2023/05/25 07:57:33;;;;;;;12.77;3.65;;;15.10;99.90;;;;;;5069851;28;20049;-63
2023/05/25 07:59:59;;;;;;;9.90;3.35;;;15.20;99.90;;;;;;5069585;28;20040;-62
2023/05/25 08:02:25;;;;;;;8.95;3.42;;;15.10;99.90;;;;;;5070879;28;20082;-63
2023/05/25 08:04:51;;;;;;;12.35;3.67;;;15.10;99.90;;;;;;5070695;28;20036;-61
2023/05/25 08:07:20;;;;;;;11.05;3.25;;;15.00;99.90;;;;;;5070742;28;20407;-62
2023/05/25 08:09:45;;;;;;;14.10;3.97;;;15.00;99.90;;;;;;5069337;28;20044;-61
2023/05/25 08:12:11;;;;;;;12.20;3.70;;;15.00;99.90;;;;;;5070785;28;20439;-61
2023/05/25 08:14:37;;;;;;;13.52;3.55;;;15.10;99.90;;;;;;5069236;28;20029;-61
2023/05/25 08:17:03;;;;;;;12.07;2.60;;;15.20;99.90;;;;;;5069226;28;20062;-61
2023/05/25 08:19:31;;;;;;;12.70;2.75;;;15.20;99.90;;;;;;5070356;28;20052;-64
2023/05/25 08:21:57;;;;;;;9.73;3.00;;;15.20;99.90;;;;;;5070636;28;20387;-61
2023/05/25 08:24:23;;;;;;;11.82;2.78;;;15.10;99.90;;;;;;5069451;28;20093;-62
2023/05/25 08:26:48;;;;;;;228.07;12.82;;;15.10;99.90;;;;;;5069091;28;20132;-61
2023/05/25 08:29:14;;;;;;;15.60;3.20;;;15.20;99.90;;;;;;5069155;28;20044;-61
2023/05/25 08:31:42;;;;;;;15.20;3.08;;;15.30;99.90;;;;;;5052436;28;20147;-63
2023/05/25 08:34:08;;;;;;;11.48;2.95;;;15.30;99.90;;;;;;5069500;28;20124;-63
2023/05/25 08:36:36;;;;;;;22.05;4.25;;;15.30;99.90;;;;;;5069365;28;20147;-63
2023/05/25 08:39:03;;;;;;;15.82;3.53;;;15.30;99.90;;;;;;5070120;28;20032;-60
2023/05/25 08:41:29;;;;;;;17.05;3.13;;;15.30;99.90;;;;;;5068655;28;20479;-66
2023/05/25 08:43:55;;;;;;;18.73;4.13;;;15.30;99.90;;;;;;5070413;28;20039;-62
2023/05/25 08:46:29;;;;;;;64.97;6.30;;;15.10;99.90;;;;;;5068459;28;20037;-63
2023/05/25 08:49:03;;;;;;;70.53;4.82;;;15.00;99.90;;;;;;5070201;28;20167;-63
2023/05/25 08:51:31;;;;;;;16.25;3.67;;;14.90;99.90;;;;;;5070331;28;20487;-62
2023/05/25 08:54:03;;;;;;;15.20;3.38;;;14.90;99.90;;;;;;5068714;28;20075;-63
2023/05/25 08:56:33;;;;;;;80.90;5.78;;;14.90;99.90;;;;;;5068573;28;20044;-62
2023/05/25 08:59:14;;;;;;;13.10;3.97;;;14.90;99.90;;;;;;5069839;28;20024;-64
2023/05/25 09:01:44;;;;;;;12.05;2.72;;;14.80;99.90;;;;;;5069953;28;20119;-62
2023/05/25 09:04:12;;;;;;;17.67;3.90;;;14.70;99.90;;;;;;5068223;28;20076;-63
2023/05/25 09:06:38;;;;;;;27.35;3.60;;;14.60;99.90;;;;;;5068432;28;20131;-62
2023/05/25 09:09:04;;;;;;;15.23;3.70;;;14.60;99.90;;;;;;5069763;28;20044;-63
2023/05/25 09:11:32;;;;;;;16.75;3.10;;;14.50;99.90;;;;;;5068282;28;20125;-61
2023/05/25 09:13:58;;;;;;;114.72;8.32;;;14.50;99.90;;;;;;5068510;28;20055;-62
2023/05/25 09:16:25;;;;;;;12.75;2.97;;;14.50;99.90;;;;;;5069817;28;20551;-63
2023/05/25 09:18:50;;;;;;;17.45;4.45;;;14.60;99.90;;;;;;5069484;28;20043;-66
2023/05/25 09:21:16;;;;;;;63.85;5.25;;;14.60;99.90;;;;;;5069356;28;20029;-62
2023/05/25 09:23:42;;;;;;;14.40;3.58;;;14.70;99.90;;;;;;5068014;28;20082;-63
2023/05/25 09:26:08;;;;;;;34.65;4.57;;;14.70;99.90;;;;;;5069318;28;20041;-64
2023/05/25 09:28:34;;;;;;;206.23;13.02;;;14.70;99.90;;;;;;5069329;28;20040;-63
2023/05/25 09:31:00;;;;;;;36.38;4.75;;;14.80;99.90;;;;;;5068440;28;20075;-64
2023/05/25 09:33:25;;;;;;;13.85;3.10;;;14.80;99.90;;;;;;5067564;28;20067;-63
2023/05/25 09:35:51;;;;;;;13.85;3.58;;;14.90;99.90;;;;;;5069450;28;20036;-61
2023/05/25 09:38:17;;;;;;;16.58;3.40;;;14.90;99.90;;;;;;5068040;28;20041;-63
2023/05/25 09:40:43;;;;;;;16.20;4.57;;;14.90;99.90;;;;;;5069122;28;20106;-64
2023/05/25 09:43:11;;;;;;;12.30;3.28;;;14.90;99.90;;;;;;5069250;28;20123;-62
2023/05/25 09:45:37;;;;;;;19.23;4.13;;;15.00;99.90;;;;;;5069501;28;20086;-64
2023/05/25 09:48:05;;;;;;;17.90;4.18;;;15.10;99.90;;;;;;5072143;28;20036;-62
2023/05/25 09:50:31;;;;;;;16.10;4.03;;;15.20;99.90;;;;;;5073228;28;20102;-62
2023/05/25 09:52:58;;;;;;;17.48;4.97;;;15.40;99.90;;;;;;5073486;28;20078;-62
2023/05/25 09:55:27;;;;;;;17.25;3.83;;;16.10;99.90;;;;;;5055283;28;20036;-65
2023/05/25 09:57:56;;;;;;;14.75;3.65;;;16.80;99.90;;;;;;5071836;28;20047;-64
2023/05/25 10:00:23;;;;;;;17.83;3.30;;;16.80;99.90;;;;;;5072236;28;20070;-62
2023/05/25 10:02:49;;;;;;;15.95;3.35;;;16.60;99.90;;;;;;5073096;28;20510;-61
2023/05/25 10:05:16;;;;;;;15.02;3.67;;;16.70;99.90;;;;;;5072084;28;20436;-61
2023/05/25 10:07:44;;;;;;;16.58;3.70;;;17.10;99.90;;;;;;5071886;28;20494;-62
2023/05/25 10:10:14;;;;;;;15.73;3.65;;;17.20;99.90;;;;;;5071900;28;21067;-61
2023/05/25 10:12:44;;;;;;;15.63;3.70;;;17.00;99.90;;;;;;5072118;28;20403;-65
2023/05/25 10:15:13;;;;;;;17.15;3.47;;;16.80;99.90;;;;;;5055030;28;20083;-64
2023/05/25 10:18:09;;;;;;;16.85;3.75;;;16.50;99.90;;;;;;5071613;28;20053;-61
2023/05/25 10:20:35;;;;;;;15.80;3.55;;;16.30;99.90;;;;;;5050116;28;20202;-65
2023/05/25 10:23:13;;;;;;;14.68;3.72;;;16.80;99.90;;;;;;5033911;28;20037;-64
2023/05/25 10:25:47;;;;;;;19.75;4.82;;;17.40;99.90;;;;;;5050346;28;20049;-64
2023/05/25 10:28:20;;;;;;;13.32;3.20;;;18.10;99.90;;;;;;5050350;28;20041;-63
2023/05/25 10:30:48;;;;;;;24.17;4.93;;;18.40;99.90;;;;;;5050351;28;20049;-62
2023/05/25 10:33:14;;;;;;;16.48;3.88;;;18.80;99.90;;;;;;5033291;28;20037;-64
2023/05/25 10:35:42;;;;;;;16.10;3.45;;;19.10;99.90;;;;;;5033908;28;20043;-64
2023/05/25 10:38:10;;;;;;;16.88;3.80;;;19.40;99.90;;;;;;5033340;28;20048;-64
2023/05/25 10:40:37;;;;;;;19.48;4.32;;;19.00;98.90;;;;;;5033218;28;20091;-65
2023/05/25 10:43:04;;;;;;;15.15;3.83;;;18.50;97.70;;;;;;5033270;28;20072;-63
2023/05/25 10:45:31;;;;;;;16.77;3.25;;;18.60;98.70;;;;;;5049998;28;20048;-63
2023/05/25 10:47:57;;;;;;;21.92;4.13;;;18.70;98.80;;;;;;5050195;28;20049;-61
2023/05/25 10:50:25;;;;;;;15.45;3.50;;;18.70;98.50;;;;;;5049827;28;21033;-63
2023/05/25 10:53:02;;;;;;;15.88;3.72;;;18.30;97.50;;;;;;5049915;28;20045;-63
2023/05/25 10:55:40;;;;;;;14.88;4.40;;;18.30;97.80;;;;;;5049572;28;20052;-60
2023/05/25 10:58:08;;;;;;;16.33;3.50;;;18.30;97.40;;;;;;5069391;28;20514;-62
2023/05/25 11:00:33;;;;;;;13.65;3.20;;;18.20;98.20;;;;;;5071188;28;20032;-62
2023/05/25 11:02:59;;;;;;;12.95;3.17;;;18.00;98.60;;;;;;5072109;28;20032;-64
2023/05/25 11:05:25;;;;;;;17.33;4.55;;;17.50;97.80;;;;;;5070587;28;20032;-61
2023/05/25 11:08:01;;;;;;;13.52;3.58;;;17.50;98.40;;;;;;5071944;28;20399;-62
2023/05/25 11:10:51;;;;;;;18.88;3.90;;;17.70;97.70;;;;;;5070492;28;20486;-62
2023/05/25 11:13:37;;;;;;;13.65;3.60;;;18.10;97.60;;;;;;5071799;28;20368;-61
2023/05/25 11:16:16;;;;;;;17.25;4.10;;;17.80;97.20;;;;;;5054012;28;20043;-62
2023/05/25 11:18:45;;;;;;;16.00;4.00;;;17.70;97.60;;;;;;5070553;28;20131;-64
2023/05/25 11:21:25;;;;;;;16.88;4.30;;;17.90;98.40;;;;;;5070726;28;20074;-63
2023/05/25 11:24:15;;;;;;;14.50;3.42;;;18.30;97.50;;;;;;5070232;28;20422;-63
2023/05/25 11:26:54;;;;;;;14.77;3.60;;;18.40;97.20;;;;;;5070373;28;20414;-62
2023/05/25 11:29:21;;;;;;;14.52;3.65;;;18.60;97.50;;;;;;5070065;28;20048;-60
2023/05/25 11:31:53;;;;;;;15.90;4.03;;;18.40;96.40;;;;;;5071787;28;20103;-62
2023/05/25 11:34:23;;;;;;;16.40;3.38;;;18.70;97.20;;;;;;5071526;28;20037;-62
2023/05/25 11:36:53;;;;;;;15.38;3.60;;;18.80;96.50;;;;;;5070081;28;20052;-61
2023/05/25 11:39:21;;;;;;;17.02;4.13;;;18.90;95.60;;;;;;5069778;28;20119;-63
2023/05/25 11:41:50;;;;;;;15.40;3.65;;;19.00;96.00;;;;;;5070982;28;20048;-60
2023/05/25 11:44:32;;;;;;;16.13;3.65;;;19.20;95.80;;;;;;5071381;28;20043;-62
2023/05/25 11:47:01;;;;;;;18.13;4.35;;;19.00;94.50;;;;;;5071337;28;20044;-61
2023/05/25 11:49:27;;;;;;;19.23;3.40;;;18.60;95.20;;;;;;5070524;28;20591;-63
2023/05/25 11:51:55;;;;;;;14.75;4.00;;;18.40;95.40;;;;;;5070836;28;20119;-62
2023/05/25 11:54:28;;;;;;;13.68;3.95;;;18.30;95.50;;;;;;5070016;28;20456;-62
2023/05/25 11:56:57;;;;;;;28.73;5.38;;;18.50;95.30;;;;;;5069480;28;20039;-62
2023/05/25 11:59:24;;;;;;;13.55;3.53;;;18.50;95.80;;;;;;5069760;28;20479;-62
2023/05/25 12:02:01;;;;;;;15.80;3.53;;;18.70;95.30;;;;;;5070833;28;20036;-63
2023/05/25 12:04:28;;;;;;;16.67;4.28;;;18.70;94.60;;;;;;5069576;28;20055;-62
2023/05/25 12:07:04;;;;;;;20.45;4.18;;;18.60;94.20;;;;;;5070575;28;20036;-62
2023/05/25 12:09:30;;;;;;;12.55;3.50;;;18.60;94.10;;;;;;5069777;28;20094;-62
2023/05/25 12:11:56;;;;;;;17.27;3.88;;;18.50;94.10;;;;;;5070696;28;20036;-64
2023/05/25 12:14:22;;;;;;;22.10;4.93;;;18.50;94.30;;;;;;5069711;28;20051;-62
2023/05/25 12:16:49;;;;;;;13.95;3.67;;;18.40;94.30;;;;;;5070555;28;20040;-66
2023/05/25 12:19:16;;;;;;;21.63;4.38;;;18.30;94.60;;;;;;5068996;28;20044;-62
2023/05/25 12:21:42;;;;;;;15.75;4.03;;;18.30;94.90;;;;;;5069615;28;20044;-64
2023/05/25 12:24:11;;;;;;;21.48;4.68;;;18.10;94.70;;;;;;5070510;28;20395;-63
2023/05/25 12:26:50;;;;;;;17.13;3.97;;;17.90;94.90;;;;;;5070764;28;20043;-62
2023/05/25 12:29:16;;;;;;;18.90;3.95;;;18.00;94.40;;;;;;5068933;28;20040;-63
2023/05/25 12:31:41;;;;;;;19.02;4.50;;;17.90;95.00;;;;;;5068919;28;20040;-62
2023/05/25 12:34:07;;;;;;;18.48;5.03;;;17.90;94.70;;;;;;5069209;28;20380;-63
2023/05/25 12:36:49;;;;;;;21.92;4.18;;;17.80;95.40;;;;;;5068805;28;20036;-62
2023/05/25 12:39:16;;;;;;;19.17;4.57;;;17.80;94.80;;;;;;5068562;28;20036;-62
2023/05/25 12:41:52;;;;;;;18.67;3.97;;;17.90;95.90;;;;;;5070116;28;20040;-62
2023/05/25 12:44:25;;;;;;;17.45;4.20;;;18.00;95.20;;;;;;5069734;28;20372;-63
2023/05/25 12:46:52;;;;;;;21.42;4.60;;;17.80;94.50;;;;;;5068714;28;20116;-63
2023/05/25 12:49:28;;;;;;;24.23;4.72;;;17.70;95.30;;;;;;5070008;28;20529;-64